createdAt,value
2022-08-03T00:00:29.364Z,4.90
2022-08-03T00:02:57.379Z,4.53
2022-08-03T00:05:25.161Z,4.90
2022-08-03T00:07:52.980Z,4.83
2022-08-03T00:10:20.415Z,4.80
2022-08-03T00:12:47.814Z,5.17
2022-08-03T00:15:16.905Z,4.77
2022-08-03T00:17:52.795Z,5.70
2022-08-03T00:20:22.136Z,5.17
2022-08-03T00:22:50.241Z,5.53
2022-08-03T00:25:18.144Z,4.67
2022-08-03T00:27:45.654Z,5.47
2022-08-03T00:30:16.998Z,4.40
2022-08-03T00:32:45.522Z,4.77
2022-08-03T00:35:28.690Z,5.67
2022-08-03T00:38:01.097Z,4.90
2022-08-03T00:40:28.657Z,5.20
2022-08-03T00:42:57.495Z,4.93
2022-08-03T00:45:27.814Z,4.60
2022-08-03T00:47:56.174Z,5.17
2022-08-03T00:50:25.591Z,5.30
2022-08-03T00:52:55.947Z,5.90
2022-08-03T00:55:24.341Z,5.47
2022-08-03T00:57:52.535Z,5.10
2022-08-03T01:00:26.181Z,5.87
2022-08-03T01:02:54.151Z,5.70
2022-08-03T01:05:22.321Z,5.30
2022-08-03T01:08:15.259Z,5.40
2022-08-03T01:11:24.694Z,5.93
2022-08-03T01:14:19.243Z,6.50
2022-08-03T01:16:50.121Z,6.17
2022-08-03T01:19:45.321Z,5.90
2022-08-03T01:22:37.645Z,6.17
2022-08-03T01:25:24.630Z,6.20
2022-08-03T01:28:20.009Z,6.17
2022-08-03T01:30:48.942Z,6.17
2022-08-03T01:33:21.959Z,5.67
2022-08-03T01:35:58.838Z,5.40
2022-08-03T01:38:31.278Z,6.40
2022-08-03T01:41:01.903Z,6.30
2022-08-03T01:44:26.174Z,6.37
2022-08-03T01:46:20.653Z,6.13
2022-08-03T01:48:49.478Z,6.53
2022-08-03T01:51:20.078Z,6.50
2022-08-03T01:53:51.059Z,6.27
2022-08-03T01:56:22.276Z,6.87
2022-08-03T01:58:51.540Z,6.50
2022-08-03T02:01:22.326Z,5.87
2022-08-03T02:03:59.790Z,6.63
2022-08-03T02:07:00.438Z,6.50
2022-08-03T02:09:21.599Z,7.47
2022-08-03T02:11:51.127Z,6.27
2022-08-03T02:14:45.778Z,7.13
2022-08-03T02:17:15.189Z,6.83
2022-08-03T02:19:46.260Z,7.13
2022-08-03T02:22:15.326Z,6.47
2022-08-03T02:24:44.422Z,6.70
2022-08-03T02:27:29.282Z,7.10
2022-08-03T02:30:03.583Z,7.03
2022-08-03T02:32:35.749Z,7.13
2022-08-03T02:35:05.647Z,7.07
2022-08-03T02:37:38.678Z,7.17
2022-08-03T02:40:12.044Z,6.63
2022-08-03T02:42:42.139Z,6.97
2022-08-03T02:45:14.607Z,7.00
2022-08-03T02:47:53.387Z,6.50
2022-08-03T02:50:24.107Z,6.40
2022-08-03T02:52:53.252Z,7.00
2022-08-03T02:55:22.654Z,7.30
2022-08-03T02:57:51.374Z,7.40
2022-08-03T03:00:28.494Z,7.20
2022-08-03T03:02:58.924Z,7.60
2022-08-03T03:05:54.338Z,7.43
2022-08-03T03:08:20.756Z,7.07
2022-08-03T03:10:55.914Z,6.73
2022-08-03T03:13:24.629Z,7.60
2022-08-03T03:15:53.570Z,7.43
2022-08-03T03:18:22.778Z,7.07
2022-08-03T03:20:53.896Z,7.30
2022-08-03T03:23:23.767Z,7.60
2022-08-03T03:25:52.338Z,7.73
2022-08-03T03:28:20.776Z,7.03
2022-08-03T03:30:53.033Z,7.57
2022-08-03T03:33:22.178Z,7.43
2022-08-03T03:35:52.108Z,7.30
2022-08-03T03:38:20.565Z,6.90
2022-08-03T03:40:48.941Z,8.07
2022-08-03T03:43:18.437Z,7.30
2022-08-03T03:45:48.397Z,7.13
2022-08-03T03:48:16.201Z,7.30
2022-08-03T03:50:44.017Z,7.03
2022-08-03T03:53:12.416Z,7.57
2022-08-03T03:55:59.748Z,7.60
2022-08-03T03:58:28.863Z,7.80
2022-08-03T04:00:56.300Z,7.60
2022-08-03T04:03:23.790Z,7.83
2022-08-03T04:06:10.251Z,7.60
2022-08-03T04:08:56.821Z,7.33
2022-08-03T04:11:30.047Z,8.57
2022-08-03T04:14:10.768Z,8.03
2022-08-03T04:16:43.948Z,7.43
2022-08-03T04:19:22.630Z,7.80
2022-08-03T04:21:57.054Z,7.13
2022-08-03T04:24:30.480Z,7.80
2022-08-03T04:26:59.495Z,7.87
2022-08-03T04:29:29.082Z,7.83
2022-08-03T04:31:59.876Z,7.93
2022-08-03T04:34:28.289Z,7.73
2022-08-03T04:36:59.802Z,8.20
2022-08-03T04:39:30.962Z,7.13
2022-08-03T04:42:08.364Z,8.50
2022-08-03T04:44:40.380Z,7.37
2022-08-03T04:47:08.586Z,7.33
2022-08-03T04:49:40.498Z,7.87
2022-08-03T04:52:10.216Z,7.83
2022-08-03T04:54:50.628Z,8.03
2022-08-03T04:57:22.857Z,7.00
2022-08-03T05:00:01.359Z,7.50
2022-08-03T05:02:32.124Z,7.37
2022-08-03T05:05:00.302Z,7.23
2022-08-03T05:07:35.915Z,7.10
2022-08-03T05:10:14.886Z,6.90
2022-08-03T05:12:46.088Z,6.80
2022-08-03T05:15:16.097Z,6.00
2022-08-03T05:17:43.690Z,6.80
2022-08-03T05:20:11.944Z,6.20
2022-08-03T05:22:39.445Z,6.70
2022-08-03T05:25:07.201Z,6.70
2022-08-03T05:27:34.598Z,6.60
2022-08-03T05:30:30.501Z,7.40
2022-08-03T05:32:49.617Z,7.13
2022-08-03T05:35:55.667Z,6.47
2022-08-03T05:38:04.701Z,5.77
2022-08-03T05:40:33.529Z,6.27
2022-08-03T05:43:01.470Z,5.50
2022-08-03T05:45:28.905Z,6.20
2022-08-03T05:47:56.452Z,6.00
2022-08-03T05:50:24.244Z,6.40
2022-08-03T05:52:54.985Z,5.70
2022-08-03T05:55:22.943Z,5.67
2022-08-03T05:57:50.615Z,5.60
2022-08-03T06:00:18.339Z,6.20
2022-08-03T06:02:46.843Z,5.60
2022-08-03T06:05:14.957Z,5.60
2022-08-03T06:07:42.365Z,5.13
2022-08-03T06:10:37.580Z,5.20
2022-08-03T06:12:57.346Z,5.23
2022-08-03T06:15:24.882Z,5.37
2022-08-03T06:17:52.510Z,5.30
2022-08-03T06:20:21.084Z,5.70
2022-08-03T06:22:51.042Z,5.10
2022-08-03T06:25:27.953Z,5.73
2022-08-03T06:30:41.957Z,5.23
2022-08-03T06:33:10.218Z,4.20
2022-08-03T06:35:37.760Z,4.50
2022-08-03T06:38:09.028Z,4.60
2022-08-03T06:40:39.945Z,4.27
2022-08-03T06:43:12.359Z,4.20
2022-08-03T06:45:41.022Z,3.90
2022-08-03T06:48:11.216Z,3.57
2022-08-03T06:50:41.458Z,3.80
2022-08-03T06:53:10.307Z,3.80
2022-08-03T06:55:51.133Z,3.30
2022-08-03T06:58:21.369Z,3.80
2022-08-03T07:00:49.270Z,3.40
2022-08-03T07:03:17.130Z,3.23
2022-08-03T07:05:48.035Z,3.07
2022-08-03T07:08:15.672Z,3.70
2022-08-03T07:10:44.056Z,3.67
2022-08-03T07:13:11.960Z,3.20
2022-08-03T07:15:55.782Z,3.13
2022-08-03T07:18:29.380Z,3.37
2022-08-03T07:20:58.464Z,3.20
2022-08-03T07:23:25.937Z,3.40
2022-08-03T07:25:53.793Z,2.47
2022-08-03T07:28:21.245Z,2.77
2022-08-03T07:30:48.706Z,2.70
2022-08-03T07:33:16.229Z,3.03
2022-08-03T07:35:44.198Z,2.80
2022-08-03T07:38:11.512Z,2.10
2022-08-03T07:40:42.098Z,2.37
2022-08-03T07:43:13.314Z,2.40
2022-08-03T07:45:40.706Z,2.90
2022-08-03T07:48:12.104Z,2.30
2022-08-03T07:50:40.230Z,2.77
2022-08-03T07:53:07.723Z,2.20
2022-08-03T07:55:35.458Z,2.53
2022-08-03T07:58:07.571Z,2.30
2022-08-03T08:00:35.685Z,2.33
2022-08-03T08:03:04.061Z,2.67
2022-08-03T08:05:31.801Z,2.30
2022-08-03T08:07:59.609Z,2.30
2022-08-03T08:10:27.323Z,3.10
2022-08-03T08:12:56.082Z,2.53
2022-08-03T08:15:23.725Z,2.70
2022-08-03T08:17:54.764Z,2.50
2022-08-03T08:20:30.435Z,2.60
2022-08-03T08:23:01.476Z,2.97
2022-08-03T08:25:31.118Z,2.50
2022-08-03T08:28:29.786Z,2.47
2022-08-03T08:30:50.786Z,2.10
2022-08-03T08:33:22.490Z,2.13
2022-08-03T08:35:53.234Z,2.13
2022-08-03T08:38:22.963Z,2.10
2022-08-03T08:40:51.155Z,2.37
2022-08-03T08:43:18.639Z,2.47
2022-08-03T08:45:49.633Z,1.90
2022-08-03T08:48:22.874Z,1.77
2022-08-03T08:50:53.726Z,2.13
2022-08-03T08:53:27.218Z,1.70
2022-08-03T08:56:00.869Z,2.17
2022-08-03T08:58:38.823Z,1.60
2022-08-03T09:01:06.984Z,1.90
2022-08-03T09:03:34.531Z,1.90
2022-08-03T09:06:02.634Z,1.67
2022-08-03T09:08:31.630Z,2.13
2022-08-03T09:11:00.779Z,1.77
2022-08-03T09:13:29.178Z,1.80
2022-08-03T09:16:11.953Z,1.80
2022-08-03T09:18:41.095Z,1.50
2022-08-03T09:21:34.613Z,1.57
2022-08-03T09:24:05.751Z,1.97
2022-08-03T09:26:36.606Z,1.50
2022-08-03T09:29:13.868Z,2.20
2022-08-03T09:31:45.812Z,1.57
2022-08-03T09:34:15.860Z,1.20
2022-08-03T09:36:46.319Z,1.47
2022-08-03T09:39:17.643Z,1.20
2022-08-03T09:42:06.386Z,1.90
2022-08-03T09:44:42.318Z,1.50
2022-08-03T09:47:11.236Z,1.70
2022-08-03T09:49:41.209Z,2.03
2022-08-03T09:52:39.324Z,1.10
2022-08-03T09:56:30.695Z,1.50
2022-08-03T09:58:11.469Z,1.43
2022-08-03T10:01:00.041Z,1.60
2022-08-03T10:03:29.639Z,1.73
2022-08-03T10:06:00.080Z,1.70
2022-08-03T10:08:27.881Z,1.73
2022-08-03T10:10:56.682Z,1.50
2022-08-03T10:13:24.085Z,1.47
2022-08-03T10:16:21.562Z,1.13
2022-08-03T10:18:40.898Z,1.57
2022-08-03T10:21:10.653Z,1.83
2022-08-03T10:23:39.556Z,1.57
2022-08-03T10:26:08.384Z,1.70
2022-08-03T10:28:45.053Z,1.57
2022-08-03T10:31:16.071Z,1.50
2022-08-03T10:33:51.350Z,1.43
2022-08-03T10:36:24.063Z,1.40
2022-08-03T10:38:53.987Z,1.43
2022-08-03T10:41:23.195Z,1.23
2022-08-03T10:44:04.557Z,1.53
2022-08-03T10:46:34.313Z,1.73
2022-08-03T10:49:03.453Z,1.50
2022-08-03T10:51:32.286Z,1.37
2022-08-03T10:54:01.806Z,1.60
2022-08-03T10:56:51.394Z,1.60
2022-08-03T10:59:27.957Z,1.50
2022-08-03T11:02:00.766Z,1.67
2022-08-03T11:04:29.964Z,1.60
2022-08-03T11:07:23.060Z,1.67
2022-08-03T11:09:53.245Z,1.33
2022-08-03T11:12:33.659Z,1.23
2022-08-03T11:15:04.954Z,1.93
2022-08-03T11:17:33.916Z,1.40
2022-08-03T11:20:14.549Z,2.10
2022-08-03T11:22:50.817Z,2.00
2022-08-03T11:25:54.807Z,1.30
2022-08-03T11:28:25.851Z,1.50
2022-08-03T11:30:54.567Z,1.30
2022-08-03T11:33:32.178Z,1.70
2022-08-03T11:36:02.411Z,1.40
2022-08-03T11:38:30.509Z,1.53
2022-08-03T11:40:58.024Z,1.60
2022-08-03T11:43:32.004Z,1.30
2022-08-03T11:46:28.414Z,1.60
2022-08-03T11:49:10.523Z,1.40
2022-08-03T11:51:40.163Z,1.63
2022-08-03T11:54:07.792Z,1.33
2022-08-03T11:56:53.725Z,1.60
2022-08-03T11:59:35.721Z,1.53
2022-08-03T12:02:11.583Z,1.57
2022-08-03T12:04:51.885Z,1.57
2022-08-03T12:07:24.411Z,1.57
2022-08-03T12:10:10.313Z,1.90
2022-08-03T12:12:42.198Z,1.80
2022-08-03T12:15:13.404Z,1.70
2022-08-03T12:17:41.761Z,1.80
2022-08-03T12:20:10.491Z,1.67
2022-08-03T12:22:40.044Z,1.50
2022-08-03T12:25:08.981Z,1.53
2022-08-03T12:27:38.475Z,1.37
2022-08-03T12:30:06.403Z,1.57
2022-08-03T12:32:33.700Z,1.40
2022-08-03T12:35:04.326Z,1.30
2022-08-03T12:37:32.452Z,1.57
2022-08-03T12:40:09.491Z,1.47
2022-08-03T12:42:40.074Z,1.73
2022-08-03T12:45:27.521Z,1.50
2022-08-03T12:48:02.073Z,1.70
2022-08-03T12:50:34.980Z,1.48
2022-08-03T12:53:05.234Z,1.77
2022-08-03T12:55:40.157Z,1.50
2022-08-03T12:58:34.645Z,1.83
2022-08-03T13:01:10.848Z,1.70
2022-08-03T13:03:50.338Z,1.70
2022-08-03T13:06:23.094Z,1.50
2022-08-03T13:09:02.137Z,1.20
2022-08-03T13:11:58.256Z,1.40
2022-08-03T13:14:19.961Z,1.63
2022-08-03T13:16:49.279Z,1.40
2022-08-03T13:19:16.857Z,1.30
2022-08-03T13:21:53.361Z,1.50
2022-08-03T13:24:33.179Z,1.53
2022-08-03T13:27:58.859Z,1.60
2022-08-03T13:29:50.547Z,1.55
2022-08-03T13:32:18.173Z,1.27
2022-08-03T13:34:45.763Z,1.33
2022-08-03T13:37:15.981Z,1.57
2022-08-03T13:39:58.324Z,1.87
2022-08-03T13:42:29.688Z,1.77
2022-08-03T13:44:57.185Z,2.07
2022-08-03T13:47:28.363Z,1.90
2022-08-03T13:50:00.844Z,1.40
2022-08-03T13:52:31.987Z,1.80
2022-08-03T13:55:00.109Z,1.80
2022-08-03T13:58:03.078Z,1.73
2022-08-03T14:00:27.574Z,2.00
2022-08-03T14:03:04.016Z,1.60
2022-08-03T14:05:33.856Z,2.10
2022-08-03T14:08:04.780Z,2.00
2022-08-03T14:10:38.408Z,1.60
2022-08-03T14:13:06.157Z,1.70
2022-08-03T14:15:38.351Z,1.37
2022-08-03T14:18:12.685Z,1.30
2022-08-03T14:20:47.824Z,1.53
2022-08-03T14:23:18.506Z,1.20
2022-08-03T14:25:52.579Z,1.43
2022-08-03T14:28:25.961Z,1.27
2022-08-03T14:30:55.760Z,1.80
2022-08-03T14:33:23.598Z,1.40
2022-08-03T14:35:52.365Z,1.20
2022-08-03T14:38:20.469Z,1.30
2022-08-03T14:40:48.506Z,1.20
2022-08-03T14:43:21.284Z,1.47
2022-08-03T14:45:53.538Z,1.50
2022-08-03T14:50:29.667Z,1.60
2022-08-03T14:51:10.598Z,1.23
2022-08-03T14:53:38.056Z,1.90
2022-08-03T14:56:09.998Z,1.40
2022-08-03T14:58:38.232Z,1.50
2022-08-03T15:02:02.496Z,1.20
2022-08-03T15:03:58.680Z,1.40
2022-08-03T15:06:26.339Z,1.50
2022-08-03T15:09:21.388Z,1.30
2022-08-03T15:11:42.463Z,1.30
2022-08-03T15:14:10.582Z,1.50
2022-08-03T15:16:41.367Z,1.50
2022-08-03T15:20:01.365Z,1.77
2022-08-03T15:21:56.629Z,1.50
2022-08-03T15:24:24.240Z,1.47
2022-08-03T15:26:52.689Z,1.63
2022-08-03T15:30:05.011Z,1.87
2022-08-03T15:32:09.568Z,1.70
2022-08-03T15:34:37.198Z,1.50
2022-08-03T15:37:15.134Z,1.60
2022-08-03T15:39:59.991Z,1.60
2022-08-03T15:42:33.159Z,1.70
2022-08-03T15:45:00.758Z,1.57
2022-08-03T15:47:28.244Z,1.70
2022-08-03T15:49:55.912Z,2.00
2022-08-03T15:52:23.649Z,1.67
2022-08-03T15:54:51.486Z,1.53
2022-08-03T15:57:19.333Z,1.33
2022-08-03T15:59:46.828Z,1.83
2022-08-03T16:02:14.312Z,1.70
2022-08-03T16:04:41.818Z,1.50
2022-08-03T16:07:12.771Z,1.67
2022-08-03T16:09:43.421Z,1.83
2022-08-03T16:12:14.489Z,1.40
2022-08-03T16:14:52.750Z,1.60
2022-08-03T16:17:22.433Z,1.10
2022-08-03T16:19:52.171Z,1.80
2022-08-03T16:22:23.867Z,1.30
2022-08-03T16:24:58.642Z,1.60
2022-08-03T16:27:56.592Z,1.67
2022-08-03T16:30:16.721Z,1.60
2022-08-03T16:32:45.254Z,1.70
2022-08-03T16:35:19.851Z,1.83
2022-08-03T16:37:51.807Z,1.60
2022-08-03T16:40:25.375Z,1.93
2022-08-03T16:42:52.864Z,1.73
2022-08-03T16:45:20.441Z,1.70
2022-08-03T16:47:48.283Z,1.83
2022-08-03T16:50:29.341Z,1.60
2022-08-03T16:52:57.518Z,1.50
2022-08-03T16:55:51.727Z,2.03
2022-08-03T16:58:15.069Z,2.33
2022-08-03T17:00:43.587Z,1.40
2022-08-03T17:03:24.057Z,1.90
2022-08-03T17:05:52.232Z,1.77
2022-08-03T17:08:26.742Z,2.00
2022-08-03T17:10:56.074Z,1.83
2022-08-03T17:13:39.510Z,1.50
2022-08-03T17:16:09.409Z,1.80
2022-08-03T17:18:52.579Z,1.67
2022-08-03T17:21:26.475Z,1.63
2022-08-03T17:24:12.293Z,1.63
2022-08-03T17:26:44.616Z,2.10
2022-08-03T17:29:13.784Z,1.87
2022-08-03T17:31:49.086Z,1.67
2022-08-03T17:34:19.053Z,2.20
2022-08-03T17:37:03.903Z,1.70
2022-08-03T17:39:57.498Z,1.90
2022-08-03T17:42:38.917Z,1.60
2022-08-03T17:45:07.320Z,2.27
2022-08-03T17:47:41.149Z,2.10
2022-08-03T17:50:24.629Z,1.67
2022-08-03T17:53:07.114Z,2.10
2022-08-03T17:55:57.042Z,2.03
2022-08-03T17:58:54.652Z,2.30
2022-08-03T18:04:41.755Z,2.10
2022-08-03T18:07:12.460Z,2.03
2022-08-03T18:10:06.752Z,1.83
2022-08-03T18:12:43.867Z,1.77
2022-08-03T18:15:21.252Z,1.83
2022-08-03T18:17:55.236Z,2.10
2022-08-03T18:20:32.913Z,2.23
2022-08-03T18:23:07.435Z,2.23
2022-08-03T18:25:45.194Z,2.07
2022-08-03T18:28:19.673Z,1.80
2022-08-03T18:30:53.654Z,1.60
2022-08-03T18:34:19.728Z,2.00
2022-08-03T18:36:21.765Z,1.70
2022-08-03T18:38:59.624Z,2.27
2022-08-03T18:41:32.139Z,2.30
2022-08-03T18:44:08.449Z,2.17
2022-08-03T18:47:06.912Z,2.23
2022-08-03T18:49:55.771Z,2.20
2022-08-03T18:52:37.550Z,2.40
2022-08-03T18:55:20.251Z,2.43
2022-08-03T18:57:55.577Z,3.20
2022-08-03T19:00:42.613Z,2.43
2022-08-03T19:03:20.181Z,2.57
2022-08-03T19:06:15.936Z,2.30
2022-08-03T19:09:06.561Z,2.47
2022-08-03T19:12:14.249Z,2.73
2022-08-03T19:14:41.694Z,2.80
2022-08-03T19:17:11.623Z,2.93
2022-08-03T19:19:44.915Z,3.20
2022-08-03T19:22:16.329Z,3.03
2022-08-03T19:25:02.615Z,3.00
2022-08-03T19:27:33.780Z,3.50
2022-08-03T19:30:11.879Z,3.33
2022-08-03T19:32:49.718Z,4.00
2022-08-03T19:35:19.073Z,4.90
2022-08-03T19:38:05.898Z,4.30
2022-08-03T19:40:37.399Z,4.40
2022-08-03T19:43:53.163Z,5.17
2022-08-03T19:46:27.629Z,4.50
2022-08-03T19:49:14.823Z,5.27
2022-08-03T19:52:00.883Z,5.17
2022-08-03T19:54:53.214Z,4.63
2022-08-03T19:57:27.065Z,4.43
2022-08-03T19:59:56.121Z,4.83
2022-08-03T20:02:26.458Z,4.80
2022-08-03T20:04:57.153Z,4.60
2022-08-03T20:07:26.138Z,4.97
2022-08-03T20:09:56.459Z,5.50
2022-08-03T20:12:29.175Z,5.00
2022-08-03T20:14:58.218Z,5.87
2022-08-03T20:17:54.410Z,6.43
2022-08-03T20:20:24.126Z,6.33
2022-08-03T20:22:57.496Z,6.20
2022-08-03T20:25:38.247Z,5.90
2022-08-03T20:28:32.153Z,6.73
2022-08-03T20:30:59.933Z,6.53
2022-08-03T20:33:27.915Z,7.63
2022-08-03T20:36:18.035Z,7.53
2022-08-03T20:38:47.893Z,6.90
2022-08-03T20:41:16.836Z,7.90
2022-08-03T20:43:44.967Z,8.00
2022-08-03T20:46:32.162Z,8.47
2022-08-03T20:49:04.611Z,7.37
2022-08-03T20:51:50.207Z,7.90
2022-08-03T20:54:31.243Z,7.80
2022-08-03T20:57:00.827Z,10.23
2022-08-03T20:59:50.241Z,9.77
2022-08-03T21:02:28.934Z,9.70
2022-08-03T21:04:56.845Z,9.07
2022-08-03T21:08:04.336Z,10.03
2022-08-03T21:10:15.924Z,9.10
2022-08-03T21:13:04.758Z,1.80
2022-08-03T21:13:23.192Z,9.67
2022-08-03T21:16:11.479Z,9.87
2022-08-03T21:18:46.326Z,9.27
2022-08-03T21:21:15.499Z,10.70
2022-08-03T21:23:48.662Z,11.07
2022-08-03T21:26:22.209Z,10.90
2022-08-03T21:28:51.803Z,11.90
2022-08-03T21:31:24.451Z,9.87
2022-08-03T21:33:54.695Z,12.57
2022-08-03T21:36:22.258Z,11.73
2022-08-03T21:38:56.319Z,10.40
2022-08-03T21:41:30.334Z,11.30
2022-08-03T21:43:59.716Z,11.47
2022-08-03T21:46:34.014Z,10.93
2022-08-03T21:50:05.215Z,11.60
2022-08-03T21:51:54.025Z,12.03
2022-08-03T21:54:27.162Z,12.43
2022-08-03T21:56:56.581Z,14.07
2022-08-03T21:59:26.256Z,12.03
2022-08-03T22:01:55.503Z,13.00
2022-08-03T22:04:53.144Z,11.87
2022-08-03T22:07:15.040Z,13.23
2022-08-03T22:09:51.199Z,13.43
2022-08-03T22:12:23.933Z,11.87
2022-08-03T22:15:00.526Z,14.30
2022-08-03T22:17:55.732Z,14.83
2022-08-03T22:20:20.641Z,13.90
2022-08-03T22:22:55.479Z,15.37
2022-08-03T22:25:30.449Z,13.90
2022-08-03T22:28:05.019Z,16.20
2022-08-03T22:30:33.281Z,16.80
2022-08-03T22:33:02.460Z,15.13
2022-08-03T22:35:32.398Z,15.77
2022-08-03T22:38:16.809Z,15.43
2022-08-03T22:40:48.268Z,15.50
2022-08-03T22:43:16.069Z,16.93
2022-08-03T22:46:09.066Z,16.90
2022-08-03T22:48:41.386Z,18.73
2022-08-03T22:51:10.110Z,15.77
2022-08-03T22:53:40.629Z,17.10
2022-08-03T22:56:08.873Z,16.40
2022-08-03T22:58:36.344Z,16.67
2022-08-03T23:01:08.788Z,17.20
2022-08-03T23:04:00.713Z,17.80
2022-08-03T23:06:38.587Z,17.10
2022-08-03T23:09:08.358Z,19.20
2022-08-03T23:11:45.437Z,18.70
2022-08-03T23:14:16.699Z,16.43
2022-08-03T23:16:45.812Z,17.37
2022-08-03T23:19:17.006Z,16.60
2022-08-03T23:21:59.857Z,15.83
2022-08-03T23:24:33.847Z,14.63
2022-08-03T23:27:03.806Z,17.00
2022-08-03T23:29:34.282Z,16.90
2022-08-03T23:32:02.746Z,13.30
2022-08-03T23:34:51.041Z,13.60
2022-08-03T23:37:20.167Z,15.60
2022-08-03T23:39:48.677Z,16.90
2022-08-03T23:42:20.349Z,18.17
2022-08-03T23:44:53.073Z,17.33
2022-08-03T23:47:20.606Z,18.50
2022-08-03T23:49:48.349Z,20.50
2022-08-03T23:52:27.571Z,20.90
2022-08-03T23:55:21.637Z,20.03
2022-08-03T23:58:03.444Z,18.50
